createdAt,value
2022-07-30T00:02:09.752Z,9.63
2022-07-30T00:04:40.689Z,10.20
2022-07-30T00:07:12.703Z,10.30
2022-07-30T00:09:43.716Z,9.83
2022-07-30T00:12:15.209Z,10.27
2022-07-30T00:14:46.199Z,9.30
2022-07-30T00:17:17.108Z,9.17
2022-07-30T00:19:48.381Z,8.30
2022-07-30T00:22:19.301Z,8.13
2022-07-30T00:24:50.790Z,8.20
2022-07-30T00:27:21.855Z,7.90
2022-07-30T00:29:52.824Z,7.80
2022-07-30T00:32:23.719Z,7.30
2022-07-30T00:34:54.950Z,7.17
2022-07-30T00:37:25.879Z,7.50
2022-07-30T00:39:56.838Z,6.73
2022-07-30T00:42:44.568Z,7.80
2022-07-30T00:45:17.552Z,7.93
2022-07-30T00:47:48.795Z,7.60
2022-07-30T00:50:19.772Z,8.57
2022-07-30T00:52:52.518Z,8.00
2022-07-30T00:55:23.471Z,8.13
2022-07-30T00:57:54.379Z,8.10
2022-07-30T01:00:25.910Z,7.70
2022-07-30T01:02:56.952Z,8.03
2022-07-30T01:05:27.901Z,8.20
2022-07-30T01:07:59.011Z,7.30
2022-07-30T01:10:29.967Z,7.00
2022-07-30T01:13:02.068Z,7.47
2022-07-30T01:15:33.896Z,6.87
2022-07-30T01:18:08.248Z,6.73
2022-07-30T01:21:01.031Z,7.30
2022-07-30T01:23:38.306Z,7.27
2022-07-30T01:26:17.625Z,6.50
2022-07-30T01:28:54.943Z,6.97
2022-07-30T01:31:28.861Z,7.43
2022-07-30T01:34:01.810Z,6.30
2022-07-30T01:36:33.603Z,7.13
2022-07-30T01:39:05.157Z,6.20
2022-07-30T01:41:36.881Z,6.67
2022-07-30T01:44:10.521Z,7.23
2022-07-30T01:46:41.917Z,7.70
2022-07-30T01:49:13.756Z,7.60
2022-07-30T01:51:48.054Z,6.53
2022-07-30T01:54:20.015Z,7.27
2022-07-30T01:56:55.289Z,6.47
2022-07-30T01:59:29.580Z,5.70
2022-07-30T02:02:01.080Z,6.43
2022-07-30T02:04:32.212Z,6.37
2022-07-30T02:07:18.942Z,6.63
2022-07-30T02:10:06.306Z,5.93
2022-07-30T02:12:46.626Z,5.90
2022-07-30T02:15:30.304Z,6.87
2022-07-30T02:18:23.729Z,6.30
2022-07-30T02:21:11.494Z,6.67
2022-07-30T02:23:46.643Z,5.67
2022-07-30T02:26:23.037Z,6.90
2022-07-30T02:29:00.586Z,6.70
2022-07-30T02:31:34.193Z,6.40
2022-07-30T02:34:07.132Z,5.87
2022-07-30T02:36:39.473Z,6.50
2022-07-30T02:39:11.882Z,6.30
2022-07-30T02:41:49.357Z,5.57
2022-07-30T02:44:22.541Z,6.80
2022-07-30T02:46:55.224Z,6.83
2022-07-30T02:49:28.034Z,6.10
2022-07-30T02:52:01.824Z,6.40
2022-07-30T02:54:33.476Z,6.53
2022-07-30T02:57:06.427Z,7.33
2022-07-30T02:59:41.428Z,7.53
2022-07-30T03:02:14.879Z,7.73
2022-07-30T03:04:49.150Z,7.07
2022-07-30T03:07:22.057Z,7.40
2022-07-30T03:09:55.230Z,7.53
2022-07-30T03:12:29.677Z,8.03
2022-07-30T03:15:00.919Z,8.43
2022-07-30T03:17:38.542Z,8.97
2022-07-30T03:20:14.569Z,8.07
2022-07-30T03:22:51.191Z,8.40
2022-07-30T03:25:29.074Z,8.90
2022-07-30T03:28:04.082Z,7.70
2022-07-30T03:30:35.550Z,8.43
2022-07-30T03:33:07.087Z,9.00
2022-07-30T03:35:39.949Z,8.60
2022-07-30T03:38:15.219Z,8.43
2022-07-30T03:40:46.952Z,8.37
2022-07-30T03:43:33.358Z,8.20
2022-07-30T03:46:06.211Z,7.67
2022-07-30T03:48:38.627Z,8.27
2022-07-30T03:51:10.323Z,7.70
2022-07-30T03:53:42.127Z,8.67
2022-07-30T03:56:15.198Z,7.33
2022-07-30T03:58:46.350Z,7.73
2022-07-30T04:01:17.519Z,7.90
2022-07-30T04:03:48.802Z,7.70
2022-07-30T04:06:19.769Z,7.40
2022-07-30T04:08:50.654Z,8.20
2022-07-30T04:11:21.584Z,8.33
2022-07-30T04:14:12.702Z,8.80
2022-07-30T04:17:00.944Z,7.60
2022-07-30T04:20:02.434Z,7.80
2022-07-30T04:22:36.589Z,6.43
2022-07-30T04:25:09.170Z,7.60
2022-07-30T04:28:02.838Z,7.63
2022-07-30T04:30:35.577Z,7.17
2022-07-30T04:33:08.303Z,6.43
2022-07-30T04:35:50.561Z,6.77
2022-07-30T04:38:22.754Z,8.00
2022-07-30T04:40:53.812Z,7.97
2022-07-30T04:43:24.696Z,7.70
2022-07-30T04:45:55.637Z,7.00
2022-07-30T04:48:28.392Z,7.17
2022-07-30T04:51:01.922Z,6.70
2022-07-30T04:53:34.375Z,7.73
2022-07-30T04:56:07.038Z,6.93
2022-07-30T04:58:41.352Z,7.97
2022-07-30T05:01:19.223Z,7.30
2022-07-30T05:03:52.660Z,7.17
2022-07-30T05:06:25.371Z,8.60
2022-07-30T05:08:56.631Z,8.20
2022-07-30T05:11:27.590Z,7.47
2022-07-30T05:13:58.715Z,8.00
2022-07-30T05:16:29.841Z,6.97
2022-07-30T05:19:00.850Z,7.30
2022-07-30T05:21:31.823Z,6.60
2022-07-30T05:24:02.755Z,7.93
2022-07-30T05:26:33.882Z,6.90
2022-07-30T05:29:07.344Z,8.13
2022-07-30T05:31:39.350Z,8.27
2022-07-30T05:34:10.392Z,8.03
2022-07-30T05:36:42.768Z,8.13
2022-07-30T05:39:14.298Z,7.87
2022-07-30T05:41:45.172Z,7.30
2022-07-30T05:44:19.602Z,8.10
2022-07-30T05:46:53.978Z,8.50
2022-07-30T05:49:24.932Z,8.17
2022-07-30T05:51:55.881Z,8.70
2022-07-30T05:54:26.925Z,7.50
2022-07-30T05:56:58.267Z,8.53
2022-07-30T05:59:29.879Z,8.40
2022-07-30T06:02:03.178Z,7.90
2022-07-30T06:04:35.549Z,6.90
2022-07-30T06:07:06.734Z,8.00
2022-07-30T06:09:37.674Z,6.50
2022-07-30T06:12:08.645Z,6.60
2022-07-30T06:14:39.699Z,6.63
2022-07-30T06:17:10.954Z,6.30
2022-07-30T06:19:41.851Z,5.70
2022-07-30T06:22:13.339Z,6.27
2022-07-30T06:24:44.283Z,6.87
2022-07-30T06:27:15.176Z,6.57
2022-07-30T06:29:46.047Z,5.90
2022-07-30T06:32:17.465Z,6.17
2022-07-30T06:34:49.715Z,5.60
2022-07-30T06:37:24.312Z,6.70
2022-07-30T06:40:15.286Z,5.23
2022-07-30T06:42:46.148Z,5.23
2022-07-30T06:45:20.708Z,5.60
2022-07-30T06:47:51.806Z,5.20
2022-07-30T06:50:23.336Z,5.03
2022-07-30T06:52:54.351Z,6.00
2022-07-30T06:55:25.917Z,6.73
2022-07-30T06:57:56.880Z,4.90
2022-07-30T07:00:27.883Z,5.47
2022-07-30T07:02:58.799Z,5.30
2022-07-30T07:05:31.899Z,5.03
2022-07-30T07:08:03.097Z,5.10
2022-07-30T07:10:34.971Z,5.80
2022-07-30T07:13:05.894Z,5.50
2022-07-30T07:15:38.980Z,5.17
2022-07-30T07:18:10.278Z,6.03
2022-07-30T07:20:43.447Z,4.73
2022-07-30T07:23:14.590Z,5.60
2022-07-30T07:25:45.529Z,6.63
2022-07-30T07:28:16.473Z,7.03
2022-07-30T07:30:47.497Z,6.87
2022-07-30T07:33:18.632Z,5.77
2022-07-30T07:35:50.365Z,6.13
2022-07-30T07:38:21.611Z,6.90
2022-07-30T07:40:53.405Z,6.17
2022-07-30T07:43:25.340Z,6.50
2022-07-30T07:45:56.301Z,6.37
2022-07-30T07:48:27.248Z,6.20
2022-07-30T07:51:00.518Z,6.73
2022-07-30T07:53:31.794Z,4.83
2022-07-30T07:56:02.795Z,5.73
2022-07-30T07:58:35.403Z,4.80
2022-07-30T08:01:09.168Z,5.30
2022-07-30T08:03:40.487Z,5.77
2022-07-30T08:06:15.017Z,4.90
2022-07-30T08:08:46.227Z,4.43
2022-07-30T08:11:17.586Z,5.40
2022-07-30T08:13:52.882Z,4.80
2022-07-30T08:16:24.212Z,4.67
2022-07-30T08:18:55.271Z,5.40
2022-07-30T08:21:26.339Z,4.63
2022-07-30T08:23:57.292Z,4.70
2022-07-30T08:26:28.197Z,4.40
2022-07-30T08:28:59.126Z,4.20
2022-07-30T08:31:30.010Z,4.67
2022-07-30T08:34:00.932Z,4.80
2022-07-30T08:36:31.877Z,3.93
2022-07-30T08:39:02.853Z,4.50
2022-07-30T08:41:33.830Z,5.00
2022-07-30T08:44:11.437Z,4.30
2022-07-30T08:46:47.501Z,4.47
2022-07-30T08:49:19.561Z,4.90
2022-07-30T08:51:51.823Z,5.00
2022-07-30T08:54:23.171Z,5.03
2022-07-30T08:56:54.671Z,4.37
2022-07-30T08:59:52.789Z,4.13
2022-07-30T09:02:19.037Z,4.20
2022-07-30T09:04:58.872Z,3.83
2022-07-30T09:07:29.834Z,4.87
2022-07-30T09:10:00.892Z,4.07
2022-07-30T09:12:41.789Z,4.00
2022-07-30T09:15:20.841Z,4.57
2022-07-30T09:17:57.614Z,3.77
2022-07-30T09:20:33.619Z,5.00
2022-07-30T09:23:06.564Z,3.90
2022-07-30T09:25:45.319Z,4.37
2022-07-30T09:28:27.977Z,3.73
2022-07-30T09:30:59.863Z,4.87
2022-07-30T09:33:43.537Z,3.60
2022-07-30T09:36:17.676Z,4.60
2022-07-30T09:38:52.677Z,4.10
2022-07-30T09:41:39.287Z,4.70
2022-07-30T09:44:10.878Z,4.40
2022-07-30T09:46:43.519Z,3.60
2022-07-30T09:49:17.063Z,3.90
2022-07-30T09:51:56.546Z,3.80
2022-07-30T09:54:51.281Z,3.53
2022-07-30T09:57:27.171Z,3.93
2022-07-30T10:00:19.492Z,3.90
2022-07-30T10:02:55.976Z,4.50
2022-07-30T10:05:28.393Z,3.43
2022-07-30T10:08:06.654Z,3.87
2022-07-30T10:10:50.866Z,3.70
2022-07-30T10:13:22.070Z,3.67
2022-07-30T10:15:53.064Z,3.20
2022-07-30T10:18:24.163Z,3.10
2022-07-30T10:20:55.807Z,3.23
2022-07-30T10:23:29.711Z,3.67
2022-07-30T10:26:04.864Z,3.97
2022-07-30T10:28:42.001Z,3.17
2022-07-30T10:31:48.259Z,3.30
2022-07-30T10:34:05.036Z,3.77
2022-07-30T10:36:36.628Z,3.33
2022-07-30T10:39:11.163Z,4.10
2022-07-30T10:42:53.197Z,3.50
2022-07-30T10:45:49.694Z,3.10
2022-07-30T10:48:21.125Z,4.03
2022-07-30T10:50:57.004Z,3.47
2022-07-30T10:53:46.746Z,3.37
2022-07-30T10:56:25.816Z,3.50
2022-07-30T10:59:11.045Z,2.70
2022-07-30T11:01:51.677Z,3.20
2022-07-30T11:04:29.638Z,3.53
2022-07-30T11:07:21.993Z,3.40
2022-07-30T11:10:09.316Z,3.30
2022-07-30T11:12:47.372Z,3.20
2022-07-30T11:15:24.088Z,4.03
2022-07-30T11:18:11.275Z,3.17
2022-07-30T11:21:21.441Z,3.20
2022-07-30T11:23:54.788Z,3.07
2022-07-30T11:26:40.949Z,3.00
2022-07-30T11:29:50.750Z,2.80
2022-07-30T11:32:35.185Z,2.60
2022-07-30T11:35:34.801Z,2.50
2022-07-30T11:38:18.975Z,2.90
2022-07-30T11:40:50.104Z,2.30
2022-07-30T11:43:37.070Z,2.27
2022-07-30T11:46:28.891Z,2.40
2022-07-30T11:49:05.607Z,2.67
2022-07-30T11:51:46.801Z,2.43
2022-07-30T11:54:18.507Z,2.47
2022-07-30T11:57:00.851Z,1.80
2022-07-30T11:59:56.949Z,2.00
2022-07-30T12:02:29.029Z,2.00
2022-07-30T12:05:00.098Z,1.93
2022-07-30T12:07:31.067Z,2.40
2022-07-30T12:10:26.878Z,2.60
2022-07-30T12:13:16.170Z,2.27
2022-07-30T12:15:49.115Z,2.50
2022-07-30T12:18:29.599Z,2.40
2022-07-30T12:21:05.182Z,2.10
2022-07-30T12:23:36.446Z,2.50
2022-07-30T12:26:07.540Z,2.70
2022-07-30T12:28:39.135Z,2.40
2022-07-30T12:31:10.186Z,2.43
2022-07-30T12:33:42.300Z,2.53
2022-07-30T12:36:32.372Z,2.23
2022-07-30T12:39:06.609Z,2.33
2022-07-30T12:41:46.243Z,2.40
2022-07-30T12:44:39.370Z,2.53
2022-07-30T12:47:31.163Z,2.10
2022-07-30T12:50:16.702Z,2.13
2022-07-30T12:52:53.652Z,1.90
2022-07-30T12:55:35.944Z,2.50
2022-07-30T12:58:09.111Z,2.23
2022-07-30T13:00:54.994Z,2.00
2022-07-30T13:03:28.924Z,2.30
2022-07-30T13:06:00.487Z,2.90
2022-07-30T13:08:57.726Z,1.90
2022-07-30T13:11:39.478Z,2.50
2022-07-30T13:14:12.733Z,2.73
2022-07-30T13:16:43.778Z,2.10
2022-07-30T13:19:14.754Z,2.37
2022-07-30T13:21:49.681Z,2.57
2022-07-30T13:24:21.758Z,2.70
2022-07-30T13:26:53.135Z,2.33
2022-07-30T13:29:24.120Z,2.60
2022-07-30T13:31:55.062Z,2.60
2022-07-30T13:34:25.945Z,2.43
2022-07-30T13:36:56.853Z,2.20
2022-07-30T13:39:28.263Z,2.50
2022-07-30T13:41:59.303Z,2.27
2022-07-30T13:44:30.221Z,2.70
2022-07-30T13:47:02.031Z,2.23
2022-07-30T13:49:35.326Z,1.90
2022-07-30T13:52:06.284Z,2.47
2022-07-30T13:54:37.322Z,2.50
2022-07-30T13:57:08.359Z,2.30
2022-07-30T13:59:39.315Z,2.13
2022-07-30T14:02:10.223Z,2.53
2022-07-30T14:04:41.225Z,1.90
2022-07-30T14:07:12.172Z,2.60
2022-07-30T14:09:46.894Z,2.40
2022-07-30T14:12:18.856Z,2.50
2022-07-30T14:14:49.801Z,2.60
2022-07-30T14:17:22.068Z,2.30
2022-07-30T14:19:54.577Z,2.73
2022-07-30T14:22:25.756Z,2.30
2022-07-30T14:24:56.993Z,2.20
2022-07-30T14:27:27.941Z,2.00
2022-07-30T14:29:58.885Z,2.10
2022-07-30T14:32:32.698Z,2.23
2022-07-30T14:35:11.490Z,2.20
2022-07-30T14:37:42.529Z,2.20
2022-07-30T14:40:13.728Z,2.40
2022-07-30T14:42:47.462Z,2.10
2022-07-30T14:45:18.385Z,2.13
2022-07-30T14:47:49.263Z,2.40
2022-07-30T14:50:20.485Z,1.80
2022-07-30T14:52:52.051Z,1.90
2022-07-30T14:55:23.094Z,2.00
2022-07-30T14:57:53.987Z,2.50
2022-07-30T15:00:24.983Z,2.13
2022-07-30T15:02:55.831Z,2.10
2022-07-30T15:05:26.856Z,2.70
2022-07-30T15:07:57.986Z,2.30
2022-07-30T15:10:28.944Z,2.07
2022-07-30T15:13:00.252Z,2.13
2022-07-30T15:15:33.436Z,2.30
2022-07-30T15:18:09.310Z,1.90
2022-07-30T15:20:40.574Z,1.77
2022-07-30T15:23:13.525Z,1.60
2022-07-30T15:25:46.336Z,1.90
2022-07-30T15:28:17.616Z,1.50
2022-07-30T15:30:48.532Z,1.70
2022-07-30T15:33:19.754Z,2.47
2022-07-30T15:35:50.729Z,2.10
2022-07-30T15:38:21.736Z,1.80
2022-07-30T15:40:52.764Z,1.87
2022-07-30T15:43:23.954Z,1.93
2022-07-30T15:45:56.274Z,1.80
2022-07-30T15:48:27.827Z,1.80
2022-07-30T15:51:04.456Z,1.93
2022-07-30T15:53:35.502Z,2.40
2022-07-30T15:56:06.830Z,2.07
2022-07-30T15:58:42.988Z,1.93
2022-07-30T16:01:14.586Z,2.37
2022-07-30T16:03:45.658Z,2.27
2022-07-30T16:06:16.688Z,2.10
2022-07-30T16:08:47.611Z,2.17
2022-07-30T16:11:18.641Z,2.20
2022-07-30T16:13:49.813Z,2.23
2022-07-30T16:16:20.983Z,2.33
2022-07-30T16:18:51.928Z,2.30
2022-07-30T16:21:23.512Z,2.47
2022-07-30T16:23:55.191Z,2.37
2022-07-30T16:26:26.239Z,2.20
2022-07-30T16:28:57.567Z,2.33
2022-07-30T16:31:28.487Z,2.00
2022-07-30T16:33:59.626Z,2.30
2022-07-30T16:36:30.575Z,2.00
2022-07-30T16:39:01.533Z,2.10
2022-07-30T16:41:32.642Z,2.00
2022-07-30T16:44:04.465Z,1.90
2022-07-30T16:46:37.030Z,2.53
2022-07-30T16:49:08.181Z,2.27
2022-07-30T16:51:39.199Z,1.67
2022-07-30T16:54:10.236Z,2.10
2022-07-30T16:56:41.294Z,1.93
2022-07-30T16:59:14.340Z,1.97
2022-07-30T17:01:45.613Z,2.40
2022-07-30T17:04:16.611Z,2.53
2022-07-30T17:06:47.614Z,2.20
2022-07-30T17:09:18.730Z,2.20
2022-07-30T17:11:52.371Z,1.97
2022-07-30T17:14:23.527Z,2.10
2022-07-30T17:16:54.516Z,2.10
2022-07-30T17:19:26.052Z,2.67
2022-07-30T17:21:56.994Z,2.10
2022-07-30T17:24:27.921Z,2.20
2022-07-30T17:26:58.885Z,2.33
2022-07-30T17:29:29.967Z,2.00
2022-07-30T17:32:01.334Z,2.23
2022-07-30T17:34:32.758Z,2.10
2022-07-30T17:37:03.923Z,2.00
2022-07-30T17:40:23.905Z,2.40
2022-07-30T17:42:26.284Z,2.23
2022-07-30T17:44:57.836Z,2.13
2022-07-30T17:47:29.031Z,2.60
2022-07-30T17:50:00.366Z,2.03
2022-07-30T17:52:31.277Z,2.43
2022-07-30T17:55:02.402Z,2.60
2022-07-30T17:57:33.313Z,2.40
2022-07-30T18:00:10.338Z,2.60
2022-07-30T18:02:41.402Z,3.00
2022-07-30T18:05:15.503Z,3.40
2022-07-30T18:07:46.555Z,2.77
2022-07-30T18:10:17.596Z,2.50
2022-07-30T18:12:49.620Z,2.77
2022-07-30T18:15:21.057Z,2.60
2022-07-30T18:17:52.374Z,2.20
2022-07-30T18:20:23.508Z,2.37
2022-07-30T18:22:54.428Z,3.07
2022-07-30T18:25:26.939Z,3.00
2022-07-30T18:27:58.219Z,3.00
2022-07-30T18:30:30.429Z,3.27
2022-07-30T18:33:05.748Z,2.80
2022-07-30T18:35:37.456Z,3.00
2022-07-30T18:38:08.837Z,2.37
2022-07-30T18:40:40.108Z,2.90
2022-07-30T18:43:11.527Z,2.87
2022-07-30T18:45:42.675Z,2.97
2022-07-30T18:48:13.674Z,2.77
2022-07-30T18:50:44.771Z,2.77
2022-07-30T18:53:16.009Z,2.73
2022-07-30T18:55:47.312Z,3.07
2022-07-30T18:58:18.420Z,3.00
2022-07-30T19:00:49.900Z,3.50
2022-07-30T19:03:23.027Z,3.20
2022-07-30T19:05:54.207Z,3.00
2022-07-30T19:08:25.120Z,2.80
2022-07-30T19:10:56.149Z,3.00
2022-07-30T19:13:27.141Z,3.33
2022-07-30T19:15:58.795Z,3.90
2022-07-30T19:18:29.741Z,2.83
2022-07-30T19:21:00.745Z,3.33
2022-07-30T19:23:31.759Z,3.10
2022-07-30T19:26:02.963Z,3.43
2022-07-30T19:28:34.713Z,3.70
2022-07-30T19:31:05.666Z,3.67
2022-07-30T19:33:36.675Z,3.50
2022-07-30T19:36:07.835Z,3.60
2022-07-30T19:38:41.984Z,3.97
2022-07-30T19:41:14.035Z,3.83
2022-07-30T19:43:57.764Z,3.33
2022-07-30T19:46:31.685Z,4.70
2022-07-30T19:49:06.791Z,4.20
2022-07-30T19:52:22.983Z,4.40
2022-07-30T19:54:28.960Z,3.90
2022-07-30T19:56:59.912Z,5.73
2022-07-30T19:59:45.532Z,6.13
2022-07-30T20:02:22.511Z,6.87
2022-07-30T20:04:53.761Z,6.93
2022-07-30T20:07:27.505Z,8.60
2022-07-30T20:09:58.703Z,7.23
2022-07-30T20:12:29.655Z,8.20
2022-07-30T20:15:01.611Z,10.30
2022-07-30T20:17:35.094Z,10.90
2022-07-30T20:20:06.709Z,11.27
2022-07-30T20:22:38.061Z,11.90
2022-07-30T20:25:11.095Z,11.30
2022-07-30T20:27:43.842Z,10.47
2022-07-30T20:30:14.971Z,9.80
2022-07-30T20:32:46.984Z,9.63
2022-07-30T20:35:19.901Z,8.10
2022-07-30T20:37:54.918Z,7.83
2022-07-30T20:40:27.044Z,6.83
2022-07-30T20:42:59.932Z,7.57
2022-07-30T20:45:40.233Z,6.73
2022-07-30T20:48:17.294Z,8.37
2022-07-30T20:50:56.154Z,9.33
2022-07-30T20:53:33.459Z,9.67
2022-07-30T20:56:07.833Z,8.00
2022-07-30T20:58:38.877Z,7.27
2022-07-30T21:01:17.296Z,6.80
2022-07-30T21:03:49.000Z,7.93
2022-07-30T21:06:20.020Z,7.50
2022-07-30T21:08:55.268Z,8.63
2022-07-30T21:11:27.637Z,8.37
2022-07-30T21:13:59.007Z,7.60
2022-07-30T21:16:30.895Z,8.23
2022-07-30T21:19:03.489Z,7.50
2022-07-30T21:21:41.534Z,8.00
2022-07-30T21:24:19.414Z,7.80
2022-07-30T21:26:54.252Z,7.90
2022-07-30T21:29:27.609Z,7.70
2022-07-30T21:32:02.039Z,8.33
2022-07-30T21:34:40.074Z,7.43
2022-07-30T21:37:13.100Z,7.90
2022-07-30T21:39:46.956Z,7.20
2022-07-30T21:42:18.104Z,8.60
2022-07-30T21:44:58.832Z,8.70
2022-07-30T21:47:29.917Z,8.23
2022-07-30T21:50:03.164Z,9.13
2022-07-30T21:52:34.225Z,8.67
2022-07-30T21:55:06.244Z,8.10
2022-07-30T21:57:37.521Z,9.23
2022-07-30T22:00:15.127Z,8.60
2022-07-30T22:02:52.782Z,9.23
2022-07-30T22:05:38.610Z,9.60
2022-07-30T22:08:12.804Z,9.30
2022-07-30T22:10:46.269Z,10.07
2022-07-30T22:13:20.794Z,9.17
2022-07-30T22:15:53.527Z,11.17
2022-07-30T22:18:26.035Z,9.60
2022-07-30T22:20:56.997Z,8.80
2022-07-30T22:23:28.481Z,9.73
2022-07-30T22:26:00.406Z,7.77
2022-07-30T22:28:31.449Z,8.00
2022-07-30T22:31:05.558Z,9.10
2022-07-30T22:33:36.766Z,8.50
2022-07-30T22:36:09.853Z,9.23
2022-07-30T22:38:42.286Z,8.20
2022-07-30T22:41:14.192Z,7.47
2022-07-30T22:43:45.239Z,7.30
2022-07-30T22:46:30.131Z,7.20
2022-07-30T22:49:02.377Z,7.57
2022-07-30T22:51:58.659Z,7.50
2022-07-30T22:54:25.070Z,8.13
2022-07-30T22:56:55.999Z,7.07
2022-07-30T23:02:25.891Z,6.70
2022-07-30T23:04:58.896Z,7.60
2022-07-30T23:07:38.780Z,7.87
2022-07-30T23:10:18.176Z,7.67
2022-07-30T23:12:30.876Z,6.67
2022-07-30T23:12:54.274Z,7.27
2022-07-30T23:15:25.315Z,7.47
2022-07-30T23:17:56.202Z,7.27
2022-07-30T23:20:27.161Z,7.50
2022-07-30T23:22:58.100Z,8.20
2022-07-30T23:25:34.553Z,7.67
2022-07-30T23:28:09.785Z,9.20
2022-07-30T23:30:40.971Z,8.70
2022-07-30T23:33:11.980Z,9.83
2022-07-30T23:35:43.768Z,11.00
2022-07-30T23:38:14.839Z,11.37
2022-07-30T23:40:46.278Z,10.87
2022-07-30T23:43:17.226Z,12.00
2022-07-30T23:45:48.150Z,9.50
2022-07-30T23:48:19.214Z,10.70
2022-07-30T23:50:50.281Z,9.20
2022-07-30T23:53:21.638Z,10.27
2022-07-30T23:55:52.698Z,10.50
2022-07-30T23:58:23.638Z,9.17
